createdAt,value
2023-05-14T00:00:27.813Z,9.50
2023-05-14T00:02:56.040Z,9.40
2023-05-14T00:05:24.652Z,9.30
2023-05-14T00:07:52.789Z,9.20
2023-05-14T00:10:22.030Z,9.10
2023-05-14T00:12:51.786Z,9.00
2023-05-14T00:15:19.982Z,8.90
2023-05-14T00:17:48.138Z,8.80
2023-05-14T00:20:16.549Z,8.70
2023-05-14T00:22:44.728Z,8.70
2023-05-14T00:25:12.898Z,8.60
2023-05-14T00:27:41.083Z,8.60
2023-05-14T00:30:11.147Z,8.50
2023-05-14T00:32:39.366Z,8.40
2023-05-14T00:35:07.789Z,8.30
2023-05-14T00:37:36.376Z,8.30
2023-05-14T00:40:06.689Z,8.20
2023-05-14T00:42:34.808Z,8.10
2023-05-14T00:45:03.042Z,8.10
2023-05-14T00:47:33.443Z,8.00
2023-05-14T00:50:01.705Z,8.00
2023-05-14T00:52:29.878Z,7.90
2023-05-14T00:54:58.112Z,7.80
2023-05-14T00:57:26.244Z,7.80
2023-05-14T00:59:54.525Z,7.80
2023-05-14T01:02:22.891Z,7.70
2023-05-14T01:04:52.881Z,7.70
2023-05-14T01:07:24.916Z,7.70
2023-05-14T01:09:54.957Z,7.60
2023-05-14T01:12:28.287Z,7.60
2023-05-14T01:14:59.704Z,7.50
2023-05-14T01:17:29.403Z,7.50
2023-05-14T01:19:59.119Z,7.40
2023-05-14T01:22:28.641Z,7.40
2023-05-14T01:24:56.947Z,7.30
2023-05-14T01:27:27.101Z,7.30
2023-05-14T01:29:59.296Z,7.20
2023-05-14T01:32:28.371Z,7.20
2023-05-14T01:34:57.984Z,7.10
2023-05-14T01:37:27.141Z,7.00
2023-05-14T01:39:56.871Z,7.00
2023-05-14T01:42:25.002Z,6.90
2023-05-14T01:44:53.331Z,6.90
2023-05-14T01:47:21.431Z,6.90
2023-05-14T01:49:49.605Z,6.80
2023-05-14T01:52:20.934Z,6.80
2023-05-14T01:54:49.445Z,6.70
2023-05-14T01:57:18.930Z,6.70
2023-05-14T01:59:47.008Z,6.70
2023-05-14T02:02:15.222Z,6.60
2023-05-14T02:04:43.354Z,6.60
2023-05-14T02:07:11.505Z,6.60
2023-05-14T02:09:40.145Z,6.50
2023-05-14T02:12:08.947Z,6.50
2023-05-14T02:14:38.802Z,6.50
2023-05-14T02:17:06.971Z,6.40
2023-05-14T02:19:35.115Z,6.40
2023-05-14T02:22:03.317Z,6.30
2023-05-14T02:24:31.484Z,6.30
2023-05-14T02:27:01.204Z,6.30
2023-05-14T02:29:29.382Z,6.20
2023-05-14T02:31:59.082Z,6.20
2023-05-14T02:34:27.279Z,6.10
2023-05-14T02:36:55.697Z,6.10
2023-05-14T02:39:23.844Z,6.10
2023-05-14T02:41:51.935Z,6.00
2023-05-14T02:44:20.086Z,6.00
2023-05-14T02:46:48.528Z,6.00
2023-05-14T02:49:18.070Z,6.00
2023-05-14T02:51:46.180Z,6.00
2023-05-14T02:54:16.364Z,6.00
2023-05-14T02:56:44.534Z,5.90
2023-05-14T02:59:12.657Z,5.90
2023-05-14T03:01:41.365Z,5.90
2023-05-14T03:04:10.043Z,5.90
2023-05-14T03:06:39.582Z,5.90
2023-05-14T03:09:08.071Z,5.90
2023-05-14T03:11:36.428Z,5.90
2023-05-14T03:14:04.540Z,5.90
2023-05-14T03:16:32.749Z,5.90
2023-05-14T03:19:00.968Z,6.00
2023-05-14T03:21:29.122Z,6.00
2023-05-14T03:23:58.749Z,6.10
2023-05-14T03:26:26.888Z,6.20
2023-05-14T03:28:54.989Z,6.30
2023-05-14T03:31:23.216Z,6.30
2023-05-14T03:33:51.437Z,6.40
2023-05-14T03:36:19.587Z,6.50
2023-05-14T03:38:47.707Z,6.50
2023-05-14T03:41:18.512Z,6.60
2023-05-14T03:43:46.672Z,6.70
2023-05-14T03:46:14.838Z,6.80
2023-05-14T03:48:43.063Z,6.90
2023-05-14T03:51:11.240Z,7.00
2023-05-14T03:53:39.484Z,7.00
2023-05-14T03:56:07.685Z,7.10
2023-05-14T03:58:37.174Z,7.20
2023-05-14T04:01:05.438Z,7.30
2023-05-14T04:03:33.691Z,7.30
2023-05-14T04:06:02.340Z,7.40
2023-05-14T04:08:30.568Z,7.60
2023-05-14T04:10:58.662Z,7.60
2023-05-14T04:13:26.838Z,7.70
2023-05-14T04:15:56.412Z,7.90
2023-05-14T04:18:24.660Z,8.00
2023-05-14T04:20:52.797Z,8.10
2023-05-14T04:23:21.696Z,8.30
2023-05-14T04:25:50.090Z,8.40
2023-05-14T04:28:18.217Z,8.50
2023-05-14T04:30:46.730Z,8.60
2023-05-14T04:33:16.326Z,8.70
2023-05-14T04:35:44.820Z,8.70
2023-05-14T04:38:14.149Z,8.80
2023-05-14T04:40:42.826Z,9.00
2023-05-14T04:43:11.539Z,9.20
2023-05-14T04:45:40.937Z,9.40
2023-05-14T04:48:09.145Z,9.60
2023-05-14T04:50:38.741Z,9.90
2023-05-14T04:53:06.818Z,10.00
2023-05-14T04:55:34.960Z,9.90
2023-05-14T04:58:03.201Z,10.00
2023-05-14T05:00:31.958Z,10.00
2023-05-14T05:03:00.242Z,10.20
2023-05-14T05:05:28.571Z,10.30
2023-05-14T05:07:58.054Z,10.60
2023-05-14T05:10:26.492Z,10.80
2023-05-14T05:12:54.851Z,11.10
2023-05-14T05:15:24.705Z,11.30
2023-05-14T05:17:54.689Z,11.40
2023-05-14T05:20:23.422Z,11.70
2023-05-14T05:22:51.656Z,12.00
2023-05-14T05:25:21.332Z,12.10
2023-05-14T05:27:49.455Z,12.20
2023-05-14T05:30:17.643Z,12.40
2023-05-14T05:32:45.896Z,12.40
2023-05-14T05:35:14.034Z,12.60
2023-05-14T05:37:42.277Z,12.80
2023-05-14T05:40:10.742Z,13.10
2023-05-14T05:42:40.213Z,13.40
2023-05-14T05:45:08.801Z,13.60
2023-05-14T05:47:37.179Z,14.00
2023-05-14T05:50:05.933Z,14.10
2023-05-14T05:52:34.055Z,13.90
2023-05-14T05:55:02.185Z,13.90
2023-05-14T05:57:30.392Z,14.40
2023-05-14T05:59:59.921Z,14.30
2023-05-14T06:02:28.207Z,14.50
2023-05-14T06:04:56.383Z,14.50
2023-05-14T06:07:24.534Z,14.50
2023-05-14T06:09:52.670Z,15.10
2023-05-14T06:12:21.704Z,15.80
2023-05-14T06:14:49.797Z,16.30
2023-05-14T06:17:19.384Z,16.50
2023-05-14T06:19:47.610Z,17.00
2023-05-14T06:22:16.179Z,17.50
2023-05-14T06:24:44.395Z,17.80
2023-05-14T06:27:12.579Z,18.00
2023-05-14T06:29:40.720Z,18.50
2023-05-14T06:32:10.158Z,18.90
2023-05-14T06:34:39.646Z,19.30
2023-05-14T06:37:07.801Z,19.60
2023-05-14T06:39:35.964Z,19.80
2023-05-14T06:42:04.188Z,19.90
2023-05-14T06:44:32.531Z,20.00
2023-05-14T06:47:00.729Z,20.20
2023-05-14T06:49:28.859Z,20.30
2023-05-14T06:51:58.414Z,20.10
2023-05-14T06:54:26.593Z,20.60
2023-05-14T06:56:54.769Z,20.80
2023-05-14T06:59:22.916Z,21.20
2023-05-14T07:01:51.090Z,21.50
2023-05-14T07:04:19.372Z,21.60
2023-05-14T07:06:47.572Z,21.70
2023-05-14T07:09:17.090Z,21.50
2023-05-14T07:11:45.630Z,21.90
2023-05-14T07:14:13.833Z,22.00
2023-05-14T07:16:42.647Z,21.70
2023-05-14T07:19:10.935Z,21.80
2023-05-14T07:21:39.158Z,22.30
2023-05-14T07:24:07.491Z,22.30
2023-05-14T07:26:37.000Z,22.00
2023-05-14T07:29:05.174Z,22.20
2023-05-14T07:31:33.740Z,22.70
2023-05-14T07:34:01.907Z,23.10
2023-05-14T07:36:30.057Z,23.00
2023-05-14T07:38:58.237Z,23.00
2023-05-14T07:41:26.380Z,22.80
2023-05-14T07:43:56.345Z,23.20
2023-05-14T07:46:25.709Z,23.10
2023-05-14T07:48:53.909Z,23.60
2023-05-14T07:51:22.990Z,24.10
2023-05-14T07:53:51.186Z,24.70
2023-05-14T07:56:19.902Z,24.50
2023-05-14T07:58:48.064Z,25.20
2023-05-14T08:01:17.536Z,25.50
2023-05-14T08:03:45.793Z,24.50
2023-05-14T08:06:14.003Z,24.20
2023-05-14T08:08:42.073Z,24.60
2023-05-14T08:11:10.282Z,24.40
2023-05-14T08:13:38.677Z,24.20
2023-05-14T08:16:07.412Z,23.70
2023-05-14T08:18:36.890Z,23.20
2023-05-14T08:21:05.204Z,23.00
2023-05-14T08:23:33.315Z,24.00
2023-05-14T08:26:01.447Z,24.30
2023-05-14T08:28:29.595Z,23.70
2023-05-14T08:30:57.734Z,23.40
2023-05-14T08:33:25.954Z,23.10
2023-05-14T08:35:56.197Z,23.20
2023-05-14T08:38:24.323Z,22.50
2023-05-14T08:40:56.269Z,22.20
2023-05-14T08:43:26.813Z,22.10
2023-05-14T08:45:58.018Z,21.90
2023-05-14T08:48:27.755Z,21.70
2023-05-14T08:50:57.762Z,22.40
2023-05-14T08:53:26.009Z,22.90
2023-05-14T08:55:54.822Z,22.70
2023-05-14T08:58:23.015Z,22.10
2023-05-14T09:00:51.136Z,21.90
2023-05-14T09:03:19.612Z,22.40
2023-05-14T09:05:48.957Z,23.20
2023-05-14T09:08:18.826Z,23.10
2023-05-14T09:10:47.038Z,23.50
2023-05-14T09:13:15.627Z,23.60
2023-05-14T09:15:43.745Z,24.00
2023-05-14T09:18:11.950Z,24.40
2023-05-14T09:20:40.158Z,22.90
2023-05-14T09:23:08.235Z,22.50
2023-05-14T09:25:37.737Z,23.00
2023-05-14T09:28:07.068Z,22.90
2023-05-14T09:30:37.030Z,22.50
2023-05-14T09:33:07.451Z,22.50
2023-05-14T09:35:35.622Z,22.70
2023-05-14T09:38:03.740Z,23.50
2023-05-14T09:40:32.023Z,23.60
2023-05-14T09:43:01.905Z,23.60
2023-05-14T09:45:30.351Z,23.60
2023-05-14T09:48:00.897Z,23.80
2023-05-14T09:50:29.052Z,24.60
2023-05-14T09:52:57.152Z,24.30
2023-05-14T09:55:27.236Z,24.60
2023-05-14T09:57:55.459Z,24.60
2023-05-14T10:00:25.189Z,24.50
2023-05-14T10:02:54.376Z,24.80
2023-05-14T10:05:24.668Z,24.00
2023-05-14T10:07:54.411Z,24.10
2023-05-14T10:10:25.608Z,23.90
2023-05-14T10:12:58.096Z,23.80
2023-05-14T10:15:31.106Z,23.90
2023-05-14T10:18:01.217Z,24.00
2023-05-14T10:20:29.801Z,24.00
2023-05-14T10:22:59.148Z,24.10
2023-05-14T10:25:28.042Z,23.60
2023-05-14T10:27:56.337Z,24.00
2023-05-14T10:30:25.317Z,24.20
2023-05-14T10:33:08.533Z,24.10
2023-05-14T10:35:52.896Z,23.70
2023-05-14T10:38:23.408Z,24.20
2023-05-14T10:40:54.103Z,24.50
2023-05-14T10:43:22.951Z,25.60
2023-05-14T10:45:51.289Z,26.50
2023-05-14T10:48:21.527Z,26.60
2023-05-14T10:50:49.778Z,26.90
2023-05-14T10:53:18.098Z,27.10
2023-05-14T10:55:47.189Z,26.40
2023-05-14T10:58:15.957Z,26.70
2023-05-14T11:00:44.390Z,26.80
2023-05-14T11:03:13.633Z,27.00
2023-05-14T11:05:43.138Z,27.60
2023-05-14T11:08:11.593Z,28.30
2023-05-14T11:10:40.500Z,28.70
2023-05-14T11:13:08.846Z,28.80
2023-05-14T11:15:37.105Z,28.60
2023-05-14T11:18:06.193Z,28.80
2023-05-14T11:20:36.862Z,29.20
2023-05-14T11:23:06.335Z,27.10
2023-05-14T11:25:34.505Z,26.50
2023-05-14T11:28:02.666Z,26.80
2023-05-14T11:30:32.251Z,26.00
2023-05-14T11:33:02.002Z,25.90
2023-05-14T11:35:30.463Z,26.00
2023-05-14T11:37:58.603Z,26.10
2023-05-14T11:40:28.064Z,26.50
2023-05-14T11:42:56.608Z,26.40
2023-05-14T11:45:29.799Z,26.70
2023-05-14T11:47:58.074Z,26.70
2023-05-14T11:50:26.530Z,26.40
2023-05-14T11:52:57.410Z,27.20
2023-05-14T11:55:25.711Z,27.40
2023-05-14T11:57:55.209Z,27.20
2023-05-14T12:00:25.057Z,27.30
2023-05-14T12:02:53.625Z,27.00
2023-05-14T12:05:21.875Z,26.90
2023-05-14T12:07:50.123Z,27.50
2023-05-14T12:10:18.308Z,27.70
2023-05-14T12:12:47.017Z,27.50
2023-05-14T12:15:17.442Z,27.40
2023-05-14T12:17:50.898Z,26.20
2023-05-14T12:20:19.098Z,26.20
2023-05-14T12:22:47.253Z,26.80
2023-05-14T12:25:15.373Z,25.70
2023-05-14T12:27:45.486Z,25.90
2023-05-14T12:30:21.364Z,25.60
2023-05-14T12:32:52.764Z,25.50
2023-05-14T12:35:21.791Z,25.30
2023-05-14T12:37:49.993Z,24.90
2023-05-14T12:40:18.186Z,25.10
2023-05-14T12:42:46.360Z,24.80
2023-05-14T12:45:14.473Z,24.10
2023-05-14T12:47:42.659Z,23.90
2023-05-14T12:50:12.582Z,23.70
2023-05-14T12:52:40.726Z,23.80
2023-05-14T12:55:09.951Z,24.00
2023-05-14T12:57:38.885Z,24.20
2023-05-14T13:00:08.496Z,24.40
2023-05-14T13:02:42.588Z,24.60
2023-05-14T13:05:13.426Z,24.30
2023-05-14T13:07:41.645Z,23.60
2023-05-14T13:10:10.206Z,23.40
2023-05-14T13:12:38.640Z,23.60
2023-05-14T13:15:07.279Z,23.10
2023-05-14T13:17:35.470Z,22.80
2023-05-14T13:20:04.631Z,22.80
2023-05-14T13:22:34.193Z,22.60
2023-05-14T13:25:02.349Z,22.50
2023-05-14T13:27:30.816Z,22.20
2023-05-14T13:29:59.092Z,22.20
2023-05-14T13:32:27.283Z,21.70
2023-05-14T13:34:55.549Z,21.70
2023-05-14T13:37:23.945Z,22.00
2023-05-14T13:39:53.495Z,22.30
2023-05-14T13:42:22.008Z,22.40
2023-05-14T13:44:50.095Z,22.40
2023-05-14T13:47:18.228Z,22.50
2023-05-14T13:49:46.407Z,22.70
2023-05-14T13:52:14.812Z,22.70
2023-05-14T13:54:42.956Z,22.60
2023-05-14T13:57:12.500Z,22.20
2023-05-14T13:59:40.789Z,22.00
2023-05-14T14:02:08.992Z,22.10
2023-05-14T14:04:38.192Z,21.60
2023-05-14T14:07:06.344Z,21.30
2023-05-14T14:09:36.685Z,21.00
2023-05-14T14:12:05.209Z,21.10
2023-05-14T14:14:34.750Z,21.10
2023-05-14T14:17:02.872Z,21.00
2023-05-14T14:19:31.044Z,21.00
2023-05-14T14:21:59.173Z,21.00
2023-05-14T14:24:27.284Z,21.00
2023-05-14T14:26:55.433Z,20.90
2023-05-14T14:29:23.964Z,21.00
2023-05-14T14:31:53.576Z,21.30
2023-05-14T14:34:21.776Z,20.90
2023-05-14T14:36:50.000Z,20.80
2023-05-14T14:39:18.204Z,20.50
2023-05-14T14:41:47.673Z,20.60
2023-05-14T14:44:15.815Z,20.50
2023-05-14T14:46:43.998Z,20.50
2023-05-14T14:49:13.523Z,20.60
2023-05-14T14:51:41.747Z,20.50
2023-05-14T14:54:09.960Z,20.20
2023-05-14T14:56:39.079Z,20.00
2023-05-14T14:59:07.232Z,19.80
2023-05-14T15:01:35.642Z,19.80
2023-05-14T15:04:04.533Z,19.80
2023-05-14T15:06:33.996Z,19.90
2023-05-14T15:09:02.090Z,20.10
2023-05-14T15:11:30.352Z,20.30
2023-05-14T15:13:58.493Z,20.50
2023-05-14T15:16:26.718Z,20.80
2023-05-14T15:18:55.142Z,20.80
2023-05-14T15:21:23.419Z,21.00
2023-05-14T15:23:52.883Z,22.10
2023-05-14T15:26:21.180Z,22.70
2023-05-14T15:28:49.343Z,23.00
2023-05-14T15:31:17.516Z,22.70
2023-05-14T15:33:45.675Z,23.20
2023-05-14T15:36:13.776Z,23.40
2023-05-14T15:38:42.571Z,23.60
2023-05-14T15:41:12.167Z,23.40
2023-05-14T15:43:40.267Z,23.70
2023-05-14T15:46:08.513Z,23.90
2023-05-14T15:48:36.767Z,24.00
2023-05-14T15:51:04.931Z,23.90
2023-05-14T15:53:33.457Z,23.80
2023-05-14T15:56:01.600Z,23.30
2023-05-14T15:58:31.202Z,23.00
2023-05-14T16:00:59.365Z,22.90
2023-05-14T16:03:27.517Z,22.50
2023-05-14T16:05:55.994Z,22.10
2023-05-14T16:08:24.587Z,21.90
2023-05-14T16:10:52.745Z,22.10
2023-05-14T16:13:20.879Z,22.00
2023-05-14T16:15:51.222Z,21.80
2023-05-14T16:18:19.363Z,21.80
2023-05-14T16:20:47.525Z,21.50
2023-05-14T16:23:15.735Z,21.40
2023-05-14T16:25:43.848Z,21.20
2023-05-14T16:28:12.029Z,21.30
2023-05-14T16:30:40.157Z,21.00
2023-05-14T16:33:09.677Z,21.00
2023-05-14T16:35:37.897Z,21.00
2023-05-14T16:38:06.098Z,20.90
2023-05-14T16:40:34.266Z,20.70
2023-05-14T16:43:02.481Z,20.30
2023-05-14T16:45:32.564Z,20.30
2023-05-14T16:48:01.159Z,20.20
2023-05-14T16:50:30.749Z,19.80
2023-05-14T16:52:58.875Z,19.50
2023-05-14T16:55:27.013Z,19.30
2023-05-14T16:57:55.127Z,19.50
2023-05-14T17:00:23.326Z,19.20
2023-05-14T17:02:54.022Z,18.90
2023-05-14T17:05:22.407Z,18.80
2023-05-14T17:07:52.023Z,18.70
2023-05-14T17:10:20.168Z,18.70
2023-05-14T17:12:48.251Z,18.60
2023-05-14T17:15:16.453Z,18.30
2023-05-14T17:17:44.645Z,18.10
2023-05-14T17:20:15.219Z,17.90
2023-05-14T17:22:44.895Z,17.70
2023-05-14T17:25:15.355Z,17.70
2023-05-14T17:27:43.491Z,17.60
2023-05-14T17:30:11.990Z,17.60
2023-05-14T17:32:40.138Z,17.50
2023-05-14T17:35:09.591Z,17.40
2023-05-14T17:37:37.756Z,17.30
2023-05-14T17:40:06.772Z,17.20
2023-05-14T17:42:36.275Z,17.20
2023-05-14T17:45:04.596Z,17.10
2023-05-14T17:47:32.758Z,17.10
2023-05-14T17:50:00.912Z,17.00
2023-05-14T17:52:29.218Z,17.00
2023-05-14T17:54:57.490Z,16.90
2023-05-14T17:57:26.082Z,16.90
2023-05-14T17:59:55.584Z,16.90
2023-05-14T18:02:23.708Z,16.80
2023-05-14T18:04:51.833Z,16.70
2023-05-14T18:07:21.553Z,16.60
2023-05-14T18:09:49.746Z,16.60
2023-05-14T18:12:17.822Z,16.50
2023-05-14T18:14:45.978Z,16.50
2023-05-14T18:17:15.488Z,16.40
2023-05-14T18:19:43.630Z,16.30
2023-05-14T18:22:11.766Z,16.30
2023-05-14T18:24:39.952Z,16.20
2023-05-14T18:27:08.077Z,16.10
2023-05-14T18:29:36.225Z,16.00
2023-05-14T18:32:04.448Z,16.00
2023-05-14T18:34:33.929Z,15.90
2023-05-14T18:37:02.132Z,15.80
2023-05-14T18:39:30.328Z,15.70
2023-05-14T18:41:58.447Z,15.60
2023-05-14T18:44:26.588Z,15.60
2023-05-14T18:46:55.505Z,15.50
2023-05-14T18:49:23.633Z,15.40
2023-05-14T18:51:53.161Z,15.30
2023-05-14T18:54:21.276Z,15.10
2023-05-14T18:56:49.436Z,15.00
2023-05-14T18:59:17.635Z,15.00
2023-05-14T19:01:45.820Z,14.90
2023-05-14T19:04:14.060Z,14.80
2023-05-14T19:06:45.588Z,14.80
2023-05-14T19:09:20.835Z,14.60
2023-05-14T19:11:49.107Z,14.50
2023-05-14T19:14:17.564Z,14.40
2023-05-14T19:16:45.712Z,14.30
2023-05-14T19:19:14.028Z,14.20
2023-05-14T19:21:42.186Z,14.20
2023-05-14T19:24:10.314Z,14.10
2023-05-14T19:26:39.936Z,14.00
2023-05-14T19:29:08.059Z,14.00
2023-05-14T19:31:36.208Z,14.00
2023-05-14T19:34:04.666Z,13.90
2023-05-14T19:36:32.819Z,13.90
2023-05-14T19:39:00.957Z,13.80
2023-05-14T19:41:29.450Z,13.80
2023-05-14T19:43:58.943Z,13.70
2023-05-14T19:46:27.255Z,13.60
2023-05-14T19:48:55.468Z,13.60
2023-05-14T19:51:23.591Z,13.50
2023-05-14T19:53:51.707Z,13.50
2023-05-14T19:56:19.932Z,13.40
2023-05-14T19:58:47.989Z,13.30
2023-05-14T20:01:17.752Z,13.40
2023-05-14T20:03:45.944Z,13.30
2023-05-14T20:06:14.123Z,13.30
2023-05-14T20:08:42.320Z,13.30
2023-05-14T20:11:10.409Z,13.20
2023-05-14T20:13:38.651Z,13.20
2023-05-14T20:16:07.098Z,13.20
2023-05-14T20:18:36.684Z,13.20
2023-05-14T20:21:05.489Z,13.20
2023-05-14T20:23:33.674Z,13.10
2023-05-14T20:26:03.905Z,13.10
2023-05-14T20:28:32.018Z,13.10
2023-05-14T20:31:01.153Z,13.10
2023-05-14T20:33:29.369Z,13.10
2023-05-14T20:35:58.872Z,13.00
2023-05-14T20:38:29.351Z,13.00
2023-05-14T20:40:57.619Z,13.00
2023-05-14T20:43:27.301Z,13.00
2023-05-14T20:45:55.554Z,12.90
2023-05-14T20:48:23.741Z,12.90
2023-05-14T20:50:51.911Z,12.90
2023-05-14T20:53:21.473Z,12.90
2023-05-14T20:55:49.626Z,12.90
2023-05-14T20:58:17.745Z,12.90
2023-05-14T21:00:46.025Z,12.80
2023-05-14T21:03:14.220Z,12.90
2023-05-14T21:05:43.626Z,12.80
2023-05-14T21:08:12.292Z,12.80
2023-05-14T21:10:41.747Z,12.80
2023-05-14T21:13:09.906Z,12.70
2023-05-14T21:15:38.301Z,12.70
2023-05-14T21:18:06.883Z,12.70
2023-05-14T21:20:35.048Z,12.60
2023-05-14T21:23:03.175Z,12.60
2023-05-14T21:25:31.302Z,12.60
2023-05-14T21:28:00.950Z,12.60
2023-05-14T21:30:29.104Z,12.50
2023-05-14T21:32:57.260Z,12.40
2023-05-14T21:35:25.599Z,12.40
2023-05-14T21:37:53.998Z,12.40
2023-05-14T21:40:22.177Z,12.40
2023-05-14T21:42:50.897Z,12.30
2023-05-14T21:45:22.874Z,12.30
2023-05-14T21:47:51.766Z,12.30
2023-05-14T21:50:19.982Z,12.30
2023-05-14T21:52:48.239Z,12.30
2023-05-14T21:55:19.528Z,12.20
2023-05-14T21:57:47.768Z,12.20
2023-05-14T22:00:23.128Z,12.20
2023-05-14T22:02:52.890Z,12.20
2023-05-14T22:05:21.278Z,12.20
2023-05-14T22:07:49.663Z,12.20
2023-05-14T22:10:17.824Z,12.10
2023-05-14T22:12:46.811Z,12.10
2023-05-14T22:15:15.022Z,12.00
2023-05-14T22:17:43.358Z,12.00
2023-05-14T22:20:13.057Z,12.00
2023-05-14T22:22:41.218Z,12.00
2023-05-14T22:25:09.787Z,11.90
2023-05-14T22:27:38.016Z,11.90
2023-05-14T22:30:06.847Z,11.90
2023-05-14T22:32:35.024Z,11.80
2023-05-14T22:35:03.230Z,11.80
2023-05-14T22:37:32.762Z,11.80
2023-05-14T22:40:02.073Z,11.80
2023-05-14T22:42:30.186Z,11.70
2023-05-14T22:44:58.374Z,11.70
2023-05-14T22:47:26.877Z,11.70
2023-05-14T22:49:55.033Z,11.60
2023-05-14T22:52:23.221Z,11.50
2023-05-14T22:54:53.236Z,11.50
2023-05-14T22:57:21.731Z,11.50
2023-05-14T22:59:50.007Z,11.40
2023-05-14T23:02:18.143Z,11.40
2023-05-14T23:04:46.350Z,11.50
2023-05-14T23:07:14.547Z,11.40
2023-05-14T23:09:42.669Z,11.40
2023-05-14T23:12:12.158Z,11.40
2023-05-14T23:14:40.318Z,11.40
2023-05-14T23:17:08.471Z,11.40
2023-05-14T23:19:36.900Z,11.30
2023-05-14T23:22:05.209Z,11.30
2023-05-14T23:24:33.356Z,11.30
2023-05-14T23:27:01.450Z,11.30
2023-05-14T23:29:30.921Z,11.30
2023-05-14T23:31:59.229Z,11.30
2023-05-14T23:34:27.388Z,11.20
2023-05-14T23:36:55.609Z,11.20
2023-05-14T23:39:23.736Z,11.20
2023-05-14T23:41:51.909Z,11.20
2023-05-14T23:44:20.145Z,11.20
2023-05-14T23:46:49.922Z,11.20
2023-05-14T23:49:18.115Z,11.20
2023-05-14T23:51:46.271Z,11.20
2023-05-14T23:54:14.446Z,11.20
2023-05-14T23:56:42.560Z,11.20
2023-05-14T23:59:11.692Z,11.20
